St Lucie County International Airport
KFPR : now visible

Airfield :











YOU CAN JOIN US ON...

 
LOGIN :

Register | Disclaimer

   EN    FR    IT 

 









Legend :    VFR   Marginal VFR   IFR   Intensive IFR   Very Intensive IFR
Visi :
Ceiling :
>= 8 km
>= 3000ft
5 to 8 km
1000 to 3000 ft
1500m to 5 km
500 to 1000 ft
800 to 1500m
200 to 500 ft
< 800m
< 200 ft
Symbols :   Thunderstorms  Fog  Heavy snow  Heavy precipitations  Wind > 20 kt






- Airport Elevation : 24 ft
- IATA code : FPR


KFPR - St Lucie County International

CURRENT METAR :
  • 261828Z 27023G31KT 1 3/4SM +TSRA BR FEW021 BKN031 OVC046 24/22 A2989 RMK AO2 PK WND 25031/1823 LTG DSNT SE-SW RAB22 TSB26 P0007 T02440222

EXPIRED METARs :
  • 261821Z 27017G26KT 10SM VCTS BKN031 27/22 A2989 RMK AO2 PK WND 25026/1821 LTG DSNT S-W PRESRR T02720222
  • 261753Z 22008KT 10SM FEW027 SCT037 31/25 A2986 RMK AO2 LTG DSNT W SLP111 T03110250 10311 20239 58004
  • 261653Z 22010KT 10SM FEW023 31/25 A2989 RMK AO2 LTG DSNT N SLP120 T03060250
  • 261637Z 23012G20KT 10SM VCTS FEW023 30/25 A2989 RMK AO2 T03000250
  • 261559Z 23009KT 10SM FEW020 SCT031 BKN040 30/26 A2989 RMK AO2 T03000256

TAF KFPR
Valid from the 26 at 18:00 until the 27 at 18:00 UTC


261731Z 2618/2718 22012KT P6SM VCSH SCT020 BKN035 BKN050
TEMPO 2618/2619 3SM TSRA BKN020CB
FM261900 19012G19KT P6SM VCTS SCT035CB BKN250
TEMPO 2619/2621 3SM TSRA BKN025CB
FM270000 19006KT P6SM SCT030 BKN250
FM271400 21007KT P6SM SCT025 SCT250
KZMA FIR / North America



MET'MAP, your aeronautical weather chart ! - Copyright ORBIFLY December 2007 - Disclaimer

ORBIFLY MET'MAP TEAM :

Programming & Development : Alexandra Zaïnal
Concept & original design : Baudouin d'Aumeries
Assistance for programming : Marc-Olivier Méhu
Technical & hardware support : Manuel Goepfert

Contact : metmap@orbifly.com




SOURCES & CREDITS :

   NOAA       Earth
Advisory